Time;durP1;ratioP1;P1;durP2;ratioP2;P2;SDS_P1;SDS_P2;PMS_P1;PMS_P2;Temp;Humidity;BMP_temperature;BMP_pressure;BME280_temperature;BME280_humidity;BME280_pressure;Samples;Min_cycle;Max_cycle;Signal;HPM_P1;HPM_P2
2022/04/20 00:02:21;;;;;;;1.80;1.60;;;16.80;55.10;;;;;;5032320;28;20076;-73
2022/04/20 00:04:48;;;;;;;2.38;1.40;;;16.00;54.80;;;;;;5014589;28;20057;-72
2022/04/20 00:07:15;;;;;;;1.80;1.40;;;16.30;55.00;;;;;;5014742;28;20482;-72
2022/04/20 00:09:41;;;;;;;1.98;1.33;;;16.80;55.00;;;;;;5032082;28;20071;-72
2022/04/20 00:12:09;;;;;;;1.90;1.50;;;16.50;49.60;;;;;;5014789;28;20060;-72
2022/04/20 00:14:37;;;;;;;1.58;1.30;;;;;;;;;;5014525;28;20075;-71
2022/04/20 00:17:05;;;;;;;1.77;1.40;;;16.10;55.00;;;;;;5014270;28;20041;-73
2022/04/20 00:19:32;;;;;;;1.80;1.50;;;16.60;55.00;;;;;;5014292;28;20064;-73
2022/04/20 00:21:59;;;;;;;1.90;1.45;;;16.10;50.50;;;;;;5014468;28;20183;-73
2022/04/20 00:24:25;;;;;;;1.73;1.35;;;16.00;55.00;;;;;;5031767;28;20067;-72
2022/04/20 00:26:52;;;;;;;1.90;1.48;;;16.50;55.30;;;;;;5014465;28;20059;-73
2022/04/20 00:29:18;;;;;;;2.20;1.33;;;16.50;55.00;;;;;;5014533;28;20613;-72
2022/04/20 00:31:45;;;;;;;1.83;1.35;;;16.50;55.30;;;;;;5031557;28;20056;-72
2022/04/20 00:34:13;;;;;;;1.85;1.42;;;16.50;55.30;;;;;;5031769;28;20049;-72
2022/04/20 00:36:40;;;;;;;2.00;1.30;;;16.60;55.40;;;;;;5014236;28;20057;-72
2022/04/20 00:39:07;;;;;;;2.10;1.65;;;;;;;;;;5031918;28;20496;-71
2022/04/20 00:41:34;;;;;;;1.90;1.45;;;16.60;55.10;;;;;;5031712;28;20428;-72
2022/04/20 00:44:01;;;;;;;1.77;1.30;;;16.40;49.10;;;;;;5014183;28;20056;-72
2022/04/20 00:46:28;;;;;;;1.90;1.60;;;;;;;;;;5031431;28;20049;-72
2022/04/20 00:48:55;;;;;;;1.58;1.25;;;16.40;55.00;;;;;;5031311;28;20046;-72
2022/04/20 00:51:23;;;;;;;1.85;1.42;;;16.60;55.10;;;;;;5031693;28;20053;-72
2022/04/20 00:53:50;;;;;;;1.55;1.40;;;16.50;54.90;;;;;;5020478;28;20820;-72
2022/04/20 00:56:16;;;;;;;1.55;1.27;;;16.60;55.50;;;;;;5020232;28;20057;-72
2022/04/20 00:58:43;;;;;;;2.08;1.40;;;16.20;54.90;;;;;;5020740;28;20045;-73
2022/04/20 01:01:10;;;;;;;1.85;1.40;;;16.30;55.00;;;;;;5020488;28;20057;-72
2022/04/20 01:03:37;;;;;;;1.80;1.30;;;16.40;55.00;;;;;;5038489;28;20053;-73
2022/04/20 01:06:04;;;;;;;2.15;1.30;;;;;;;;;;5019888;28;20049;-71
2022/04/20 01:08:32;;;;;;;1.88;1.50;;;16.30;55.00;;;;;;5038355;28;20406;-72
2022/04/20 01:10:59;;;;;;;1.88;1.50;;;16.00;55.10;;;;;;5020414;28;20132;-72
2022/04/20 01:13:26;;;;;;;1.92;1.20;;;;;;;;;;5038007;28;20140;-71
2022/04/20 01:15:52;;;;;;;1.90;1.55;;;16.20;55.00;;;;;;5020463;28;20061;-72
2022/04/20 01:18:19;;;;;;;1.70;1.40;;;16.20;55.30;;;;;;5020684;28;20409;-72
2022/04/20 01:20:47;;;;;;;2.70;1.48;;;16.30;49.10;;;;;;5037583;28;20047;-72
2022/04/20 01:23:14;;;;;;;2.95;1.55;;;;;;;;;;5038101;28;20051;-72
2022/04/20 01:25:41;;;;;;;1.70;1.30;;;15.90;54.90;;;;;;5020307;28;20053;-72
2022/04/20 01:28:08;;;;;;;1.88;1.30;;;16.20;55.40;;;;;;5038149;28;20104;-72
2022/04/20 01:30:35;;;;;;;1.52;1.42;;;16.40;55.20;;;;;;5020081;28;20115;-73
2022/04/20 01:33:02;;;;;;;2.60;1.60;;;;;;;;;;5020217;28;20060;-72
2022/04/20 01:35:29;;;;;;;2.03;1.45;;;16.40;55.50;;;;;;5020194;28;20055;-72
2022/04/20 01:37:57;;;;;;;1.50;1.30;;;15.90;55.00;;;;;;5020184;28;20625;-72
2022/04/20 01:40:24;;;;;;;2.38;1.42;;;16.20;55.20;;;;;;5003758;28;20060;-72
2022/04/20 01:42:51;;;;;;;2.20;1.50;;;16.20;51.80;;;;;;5037559;28;20055;-73
2022/04/20 01:45:18;;;;;;;2.53;1.65;;;16.20;55.10;;;;;;5037770;28;20059;-72
2022/04/20 01:47:45;;;;;;;1.65;1.35;;;;;;;;;;5037729;28;20049;-71
2022/04/20 01:50:11;;;;;;;2.60;1.50;;;16.00;55.30;;;;;;5020211;28;20049;-72
2022/04/20 01:52:38;;;;;;;2.00;1.60;;;16.60;55.40;;;;;;5020078;28;20045;-72
2022/04/20 01:55:07;;;;;;;2.50;1.50;;;16.80;55.60;;;;;;5019639;28;20057;-72
2022/04/20 01:57:34;;;;;;;1.58;1.38;;;16.30;55.70;;;;;;5020368;28;20474;-73
2022/04/20 02:00:01;;;;;;;1.92;1.40;;;;;;;;;;5019487;28;20157;-72
2022/04/20 02:02:36;;;;;;;1.60;1.42;;;16.10;55.40;;;;;;5019976;28;20063;-72
2022/04/20 02:05:03;;;;;;;1.83;1.52;;;16.10;55.50;;;;;;5016141;28;20053;-72
2022/04/20 02:07:31;;;;;;;2.20;1.42;;;16.10;55.30;;;;;;5016988;28;20052;-72
2022/04/20 02:09:58;;;;;;;3.85;1.42;;;16.10;55.20;;;;;;5016539;28;20061;-72
2022/04/20 02:12:26;;;;;;;2.38;1.40;;;15.70;55.30;;;;;;5034232;28;20051;-72
2022/04/20 02:14:53;;;;;;;2.22;1.40;;;;;;;;;;5034397;28;20413;-72
2022/04/20 02:17:20;;;;;;;1.90;1.50;;;15.70;55.40;;;;;;5016578;28;20053;-72
2022/04/20 02:19:47;;;;;;;1.52;1.33;;;16.00;55.70;;;;;;5016267;28;20049;-73
2022/04/20 02:22:14;;;;;;;2.38;1.50;;;16.00;55.60;;;;;;5016645;28;20054;-72
2022/04/20 02:24:40;;;;;;;1.95;1.63;;;16.00;55.20;;;;;;5016779;28;20057;-73
2022/04/20 02:27:08;;;;;;;1.95;1.50;;;15.90;55.30;;;;;;5016314;28;20409;-73
2022/04/20 02:29:37;;;;;;;2.33;1.50;;;16.00;55.30;;;;;;4996898;28;20414;-73
2022/04/20 02:32:04;;;;;;;1.80;1.30;;;16.20;55.40;;;;;;4997016;28;20644;-72
2022/04/20 02:34:30;;;;;;;1.98;1.40;;;15.70;55.50;;;;;;4996764;28;20068;-72
2022/04/20 02:36:58;;;;;;;2.45;1.40;;;16.30;55.90;;;;;;5014217;28;20056;-73
2022/04/20 02:39:24;;;;;;;2.35;1.40;;;15.70;55.50;;;;;;4996715;28;20132;-69
2022/04/20 02:41:51;;;;;;;1.85;1.50;;;15.70;55.50;;;;;;5014438;28;20100;-72
2022/04/20 02:44:18;;;;;;;2.20;1.70;;;;;;;;;;5002015;28;20539;-71
2022/04/20 02:46:46;;;;;;;3.45;1.60;;;15.90;55.60;;;;;;5016526;28;20059;-72
2022/04/20 02:49:13;;;;;;;3.05;1.50;;;15.90;55.60;;;;;;5015657;28;20057;-72
2022/04/20 02:51:40;;;;;;;2.60;1.65;;;15.90;55.40;;;;;;5016123;28;20057;-73
2022/04/20 02:54:07;;;;;;;2.00;1.33;;;;;;;;;;5016120;28;20075;-72
2022/04/20 02:56:33;;;;;;;3.17;1.52;;;16.00;55.70;;;;;;5033500;28;20506;-73
2022/04/20 02:59:01;;;;;;;2.13;1.40;;;15.80;55.60;;;;;;5015771;28;20055;-72
2022/04/20 03:01:30;;;;;;;2.35;1.40;;;16.50;56.10;;;;;;5015499;28;20049;-72
2022/04/20 03:03:58;;;;;;;1.80;1.50;;;15.80;55.50;;;;;;5033130;28;20107;-72
2022/04/20 03:06:25;;;;;;;2.75;1.50;;;15.40;55.60;;;;;;5033653;28;20107;-72
2022/04/20 03:08:52;;;;;;;1.95;1.50;;;16.60;55.90;;;;;;5015803;28;20060;-73
2022/04/20 03:11:19;;;;;;;1.85;1.60;;;16.00;55.70;;;;;;5015593;28;20060;-72
2022/04/20 03:13:46;;;;;;;1.70;1.40;;;15.80;55.40;;;;;;5015917;28;20092;-72
2022/04/20 03:16:13;;;;;;;1.83;1.33;;;;;;;;;;5015258;28;20050;-72
2022/04/20 03:18:40;;;;;;;1.90;1.50;;;15.80;55.70;;;;;;5015149;28;20045;-72
2022/04/20 03:21:08;;;;;;;2.38;1.67;;;15.80;55.50;;;;;;5032946;28;20061;-72
2022/04/20 03:23:35;;;;;;;1.77;1.50;;;15.60;55.60;;;;;;5033211;28;20548;-72
2022/04/20 03:26:03;;;;;;;1.42;1.27;;;15.80;52.60;;;;;;5033013;28;20060;-72
2022/04/20 03:28:29;;;;;;;2.03;1.60;;;15.90;55.50;;;;;;5033005;28;20049;-72
2022/04/20 03:30:56;;;;;;;1.85;1.40;;;15.70;55.70;;;;;;5032803;28;20049;-72
2022/04/20 03:33:23;;;;;;;1.73;1.27;;;15.60;55.50;;;;;;5015214;28;20238;-73
2022/04/20 03:35:50;;;;;;;2.47;1.50;;;15.80;55.70;;;;;;5015171;28;20057;-72
2022/04/20 03:38:18;;;;;;;2.00;1.45;;;15.50;55.10;;;;;;5015397;28;20049;-72
2022/04/20 03:40:46;;;;;;;1.77;1.42;;;15.30;55.40;;;;;;5032621;28;20041;-72
2022/04/20 03:43:13;;;;;;;1.65;1.30;;;15.80;55.60;;;;;;5015283;28;20064;-72
2022/04/20 03:45:39;;;;;;;2.67;1.83;;;15.20;55.10;;;;;;5014997;28;20099;-73
2022/04/20 03:48:06;;;;;;;1.55;1.38;;;15.70;53.40;;;;;;5032737;28;20050;-72
2022/04/20 03:50:34;;;;;;;1.83;1.45;;;15.60;55.30;;;;;;5014001;28;20064;-72
2022/04/20 03:53:01;;;;;;;2.38;1.50;;;15.20;55.40;;;;;;5015259;28;20160;-73
2022/04/20 03:55:29;;;;;;;3.38;1.60;;;15.60;55.30;;;;;;5014912;28;20133;-73
2022/04/20 03:57:56;;;;;;;1.60;1.38;;;;;;;;;;5014941;28;20050;-73
2022/04/20 04:00:24;;;;;;;2.25;1.50;;;15.50;55.60;;;;;;5014412;28;20057;-72
2022/04/20 04:02:50;;;;;;;1.50;1.33;;;15.80;52.00;;;;;;5014906;28;20045;-72
2022/04/20 04:05:17;;;;;;;1.92;1.50;;;15.60;55.40;;;;;;5014327;28;20516;-73
2022/04/20 04:07:44;;;;;;;1.80;1.45;;;15.50;55.40;;;;;;5014319;28;20057;-73
2022/04/20 04:10:10;;;;;;;1.60;1.42;;;15.60;52.10;;;;;;5032154;28;20049;-72
2022/04/20 04:12:38;;;;;;;2.00;1.50;;;15.60;55.70;;;;;;5032209;28;20052;-73
2022/04/20 04:15:07;;;;;;;1.80;1.30;;;15.70;55.60;;;;;;5014715;28;20840;-72
2022/04/20 04:17:34;;;;;;;2.65;1.65;;;15.70;55.80;;;;;;5014439;28;20127;-73
2022/04/20 04:20:01;;;;;;;2.40;1.30;;;;;;;;;;5032076;28;20490;-71
2022/04/20 04:22:27;;;;;;;2.85;1.45;;;15.60;55.40;;;;;;5031719;28;20049;-72
2022/04/20 04:24:56;;;;;;;2.05;1.60;;;15.40;55.30;;;;;;5032122;28;20045;-72
2022/04/20 04:27:23;;;;;;;1.70;1.30;;;;;;;;;;5031323;28;20051;-72
2022/04/20 04:29:51;;;;;;;3.10;1.60;;;15.60;55.60;;;;;;5013868;28;20053;-72
2022/04/20 04:32:18;;;;;;;2.65;1.50;;;15.60;55.60;;;;;;5031895;28;20508;-73
2022/04/20 04:34:45;;;;;;;1.75;1.40;;;;;;;;;;5014453;28;20069;-72
2022/04/20 04:37:14;;;;;;;2.40;1.48;;;15.20;55.20;;;;;;5014552;28;20079;-72
2022/04/20 04:39:40;;;;;;;1.90;1.50;;;15.60;55.50;;;;;;5013888;28;20049;-72
2022/04/20 04:42:08;;;;;;;2.03;1.30;;;15.70;55.50;;;;;;5031730;28;20486;-72
2022/04/20 04:44:34;;;;;;;2.72;1.50;;;15.70;55.40;;;;;;5013774;28;20059;-73
2022/04/20 04:49:46;;;;;;;;;;;15.60;49.40;;;;;;5013793;28;20088;-73
2022/04/20 04:52:13;;;;;;;1.52;1.40;;;;;;;;;;5013957;28;19925;-67
2022/04/20 04:54:41;;;;;;;2.03;1.42;;;15.50;55.80;;;;;;5029498;28;20453;-71
2022/04/20 04:57:08;;;;;;;1.63;1.35;;;15.10;55.10;;;;;;5031510;28;20049;-70
2022/04/20 04:59:36;;;;;;;1.73;1.33;;;15.30;55.50;;;;;;5031823;28;20463;-71
2022/04/20 05:02:04;;;;;;;1.70;1.40;;;15.60;55.60;;;;;;5031570;28;20398;-71
2022/04/20 05:04:31;;;;;;;2.17;1.50;;;15.70;55.70;;;;;;5014041;28;20053;-71
2022/04/20 05:06:58;;;;;;;1.90;1.40;;;;;;;;;;5014089;28;20068;-70
2022/04/20 05:09:25;;;;;;;1.48;1.33;;;15.60;55.60;;;;;;5013667;28;20050;-70
2022/04/20 05:11:52;;;;;;;3.60;1.42;;;;;;;;;;5013963;28;20060;-71
2022/04/20 05:14:19;;;;;;;1.85;1.30;;;15.70;55.60;;;;;;5031392;28;20072;-71
2022/04/20 05:16:45;;;;;;;1.77;1.40;;;15.60;55.60;;;;;;5031330;28;20133;-71
2022/04/20 05:19:13;;;;;;;1.38;1.20;;;15.60;51.40;;;;;;5013354;28;20056;-71
2022/04/20 05:21:40;;;;;;;1.83;1.48;;;15.30;50.20;;;;;;5028168;28;20386;-71
2022/04/20 05:24:07;;;;;;;1.88;1.48;;;15.50;55.20;;;;;;5030982;28;20055;-71
2022/04/20 05:26:34;;;;;;;1.95;1.45;;;15.70;55.30;;;;;;5031058;28;20057;-71
2022/04/20 05:29:00;;;;;;;1.85;1.50;;;15.60;51.30;;;;;;5010658;28;20133;-71
2022/04/20 05:31:27;;;;;;;3.70;1.70;;;15.70;55.30;;;;;;5030686;28;20049;-71
2022/04/20 05:33:54;;;;;;;2.20;1.50;;;15.20;55.00;;;;;;5013164;28;20060;-70
2022/04/20 05:36:22;;;;;;;2.08;1.30;;;15.70;49.90;;;;;;5028025;28;20045;-70
2022/04/20 05:41:42;;;;;;;3.28;1.65;;;15.00;54.90;;;;;;5015747;28;20045;-73
2022/04/20 05:44:10;;;;;;;1.83;1.40;;;15.20;55.20;;;;;;5015518;28;20057;-73
2022/04/20 05:46:37;;;;;;;2.15;1.48;;;;;;;;;;5016690;28;20475;-71
2022/04/20 05:49:03;;;;;;;1.50;1.33;;;15.30;55.10;;;;;;5016948;28;20540;-72
2022/04/20 06:03:03;;;;;;;2.20;1.40;;;15.70;48.60;;;;;;5022541;28;20084;-71
2022/04/20 06:05:30;;;;;;;2.10;1.52;;;15.50;55.40;;;;;;5037345;28;20045;-71
2022/04/20 06:07:57;;;;;;;2.00;1.40;;;15.60;55.40;;;;;;5050081;28;20067;-70
2022/04/20 06:10:24;;;;;;;1.63;1.42;;;15.70;54.10;;;;;;5042611;28;20129;-71
2022/04/20 06:12:51;;;;;;;2.13;1.63;;;;;;;;;;5016429;28;20103;-71
2022/04/20 06:15:18;;;;;;;2.95;1.50;;;15.40;55.00;;;;;;5016782;28;20059;-71
2022/04/20 06:17:45;;;;;;;2.70;1.40;;;15.40;55.20;;;;;;5033379;28;20053;-71
2022/04/20 06:20:14;;;;;;;2.22;1.58;;;15.70;48.40;;;;;;5034078;28;20079;-71
2022/04/20 06:22:40;;;;;;;2.30;1.50;;;15.70;54.80;;;;;;5034277;28;20412;-71
2022/04/20 06:25:08;;;;;;;2.63;1.60;;;15.70;52.20;;;;;;5016705;28;20053;-71
2022/04/20 06:27:35;;;;;;;2.60;1.60;;;16.00;55.00;;;;;;5016698;28;20406;-71
2022/04/20 06:30:02;;;;;;;1.45;1.30;;;;;;;;;;5033777;28;20160;-70
2022/04/20 06:32:29;;;;;;;1.80;1.50;;;15.80;54.70;;;;;;5034011;28;20049;-71
2022/04/20 06:34:56;;;;;;;2.00;1.42;;;15.30;54.40;;;;;;5034148;28;20405;-71
2022/04/20 06:37:25;;;;;;;1.98;1.40;;;15.90;55.00;;;;;;5033946;28;20129;-71
2022/04/20 06:39:54;;;;;;;1.73;1.50;;;16.00;55.00;;;;;;5015750;28;20056;-71
2022/04/20 06:42:21;;;;;;;2.25;1.45;;;16.30;54.70;;;;;;5033896;28;20042;-71
2022/04/20 06:44:48;;;;;;;2.85;1.50;;;16.20;54.70;;;;;;5033597;28;20137;-71
2022/04/20 06:47:15;;;;;;;2.83;1.52;;;;;;;;;;5033919;28;20064;-71
2022/04/20 06:49:42;;;;;;;1.50;1.30;;;;;;;;;;5033040;28;20041;-71
2022/04/20 07:00:25;;;;;;;1.20;1.10;;;17.10;53.60;;;;;;5015549;28;20037;-71
2022/04/20 07:02:59;;;;;;;2.00;1.50;;;17.60;53.90;;;;;;5015860;28;20497;-71
2022/04/20 07:05:25;;;;;;;1.40;1.30;;;17.80;53.60;;;;;;5033647;28;20128;-71
2022/04/20 07:07:52;;;;;;;2.28;1.40;;;17.60;53.10;;;;;;5030065;28;20482;-71
2022/04/20 07:10:20;;;;;;;2.70;1.40;;;17.50;46.80;;;;;;5021898;28;20044;-71
2022/04/20 07:12:47;;;;;;;1.88;1.40;;;18.00;48.50;;;;;;5015624;28;20053;-70
2022/04/20 07:15:14;;;;;;;2.13;1.50;;;17.80;53.00;;;;;;5033541;28;20192;-72
2022/04/20 07:17:40;;;;;;;2.10;1.50;;;17.00;52.10;;;;;;5015926;28;20136;-72
2022/04/20 07:20:10;;;;;;;2.58;1.35;;;17.90;46.40;;;;;;5033021;28;20497;-72
2022/04/20 07:22:37;;;;;;;1.85;1.40;;;18.00;52.50;;;;;;5033501;28;20153;-72
2022/04/20 07:25:05;;;;;;;4.00;1.40;;;18.20;52.30;;;;;;5026188;28;20414;-72
2022/04/20 07:27:33;;;;;;;2.20;1.45;;;17.10;52.10;;;;;;5014316;28;20045;-71
2022/04/20 07:30:00;;;;;;;2.78;1.60;;;18.20;52.10;;;;;;5013031;28;20056;-71
2022/04/20 07:32:26;;;;;;;3.42;1.63;;;17.80;51.70;;;;;;5014618;28;20049;-72
2022/04/20 07:34:53;;;;;;;1.83;1.50;;;18.30;51.90;;;;;;5014961;28;20506;-70
2022/04/20 07:37:20;;;;;;;4.05;1.50;;;17.40;51.30;;;;;;5032737;28;20045;-71
2022/04/20 07:39:47;;;;;;;3.88;2.03;;;18.80;51.70;;;;;;5014476;28;20048;-72
2022/04/20 07:42:14;;;;;;;2.33;1.63;;;18.70;47.60;;;;;;5032174;28;20054;-72
2022/04/20 07:44:42;;;;;;;1.88;1.50;;;18.60;51.80;;;;;;5014669;28;20051;-72
2022/04/20 07:47:08;;;;;;;2.50;1.48;;;18.40;51.20;;;;;;5032358;28;20401;-72
2022/04/20 07:52:19;;;;;;;2.50;1.40;;;18.50;51.30;;;;;;5015398;28;20406;-72
2022/04/20 07:54:46;;;;;;;1.50;1.33;;;18.80;51.40;;;;;;5032480;28;20049;-71
2022/04/20 07:57:15;;;;;;;2.58;1.50;;;18.80;51.70;;;;;;5012046;28;20066;-71
2022/04/20 07:59:43;;;;;;;3.83;1.63;;;18.60;51.10;;;;;;5027375;28;20045;-70
2022/04/20 08:02:10;;;;;;;1.90;1.40;;;;;;;;;;5013955;28;20060;-71
2022/04/20 08:04:37;;;;;;;2.53;1.48;;;18.80;51.10;;;;;;5022106;28;20048;-72
2022/04/20 08:07:05;;;;;;;2.10;1.40;;;17.90;50.50;;;;;;5011741;28;20066;-72
2022/04/20 08:09:32;;;;;;;2.25;1.27;;;18.70;50.70;;;;;;5011309;28;20049;-72
2022/04/20 08:11:59;;;;;;;1.90;1.25;;;18.70;51.00;;;;;;5011640;28;20136;-72
2022/04/20 08:14:25;;;;;;;1.70;1.30;;;18.60;50.90;;;;;;5011595;28;20409;-71
2022/04/20 08:16:54;;;;;;;1.48;1.33;;;18.80;51.20;;;;;;5011347;28;20060;-71
2022/04/20 08:19:21;;;;;;;2.58;1.30;;;18.90;50.90;;;;;;5020888;28;20057;-71
2022/04/20 08:21:48;;;;;;;1.75;1.30;;;18.80;51.00;;;;;;5014623;28;20485;-71
2022/04/20 08:24:14;;;;;;;1.92;1.20;;;18.80;50.70;;;;;;5032507;28;20053;-71
2022/04/20 08:26:41;;;;;;;1.95;1.40;;;19.20;50.50;;;;;;5031845;28;20490;-71
2022/04/20 08:29:10;;;;;;;1.58;1.33;;;18.70;50.80;;;;;;5014392;28;20063;-71
2022/04/20 08:31:36;;;;;;;2.20;1.38;;;19.10;50.60;;;;;;5014391;28;20379;-71
2022/04/20 08:34:04;;;;;;;2.03;1.38;;;18.90;45.20;;;;;;5014455;28;20065;-71
2022/04/20 08:36:31;;;;;;;1.80;1.23;;;19.10;46.80;;;;;;5030791;28;20406;-71
2022/04/20 08:38:58;;;;;;;2.85;1.30;;;19.20;51.20;;;;;;5021449;28;20052;-71
2022/04/20 08:41:24;;;;;;;3.05;1.50;;;18.70;51.20;;;;;;5011417;28;20057;-71
2022/04/20 08:43:51;;;;;;;2.67;1.40;;;;;;;;;;5013973;28;20486;-70
2022/04/20 08:46:18;;;;;;;3.72;1.85;;;18.50;50.90;;;;;;5013952;28;20060;-71
2022/04/20 08:48:45;;;;;;;3.17;1.50;;;18.20;50.30;;;;;;5031986;28;20087;-71
2022/04/20 08:51:13;;;;;;;2.30;1.33;;;19.10;51.00;;;;;;5031726;28;20059;-71
2022/04/20 08:53:40;;;;;;;2.50;1.38;;;19.10;50.70;;;;;;5014275;28;20060;-70
2022/04/20 08:59:06;;;;;;;1.67;1.17;;;;;;;;;;4954286;28;20117;-69
2022/04/20 09:01:33;;;;;;;3.15;1.80;;;19.10;50.90;;;;;;4970389;28;20511;-69
2022/04/20 09:03:59;;;;;;;3.45;1.40;;;19.00;50.50;;;;;;4980663;28;20053;-69
2022/04/20 09:06:27;;;;;;;3.25;1.35;;;19.20;45.10;;;;;;5013834;28;20054;-69
2022/04/20 09:08:54;;;;;;;2.42;1.30;;;19.20;51.50;;;;;;5029993;28;20504;-69
2022/04/20 09:11:21;;;;;;;2.75;1.30;;;19.30;51.00;;;;;;5009843;28;20050;-69
2022/04/20 09:13:48;;;;;;;2.75;1.30;;;19.20;50.80;;;;;;5013826;28;20050;-69
2022/04/20 09:16:15;;;;;;;2.63;1.40;;;20.00;51.00;;;;;;5017388;28;20130;-69
2022/04/20 09:18:42;;;;;;;4.22;1.58;;;19.30;50.40;;;;;;5017834;28;20055;-69
2022/04/20 09:21:10;;;;;;;2.10;1.20;;;19.20;50.80;;;;;;5029293;28;20057;-69
2022/04/20 09:23:38;;;;;;;2.97;1.30;;;19.30;50.70;;;;;;5033528;28;20045;-69
2022/04/20 09:26:09;;;;;;;3.92;1.42;;;19.90;50.70;;;;;;5034681;28;20049;-69
2022/04/20 09:28:36;;;;;;;3.05;1.30;;;19.40;50.50;;;;;;5034784;28;20057;-69
2022/04/20 09:31:03;;;;;;;3.60;1.40;;;19.30;50.30;;;;;;5016394;28;20077;-69
2022/04/20 09:33:43;;;;;;;1.77;1.13;;;19.40;50.60;;;;;;5016989;28;20410;-69
2022/04/20 09:36:10;;;;;;;2.05;1.40;;;19.50;50.70;;;;;;5016502;28;20057;-69
2022/04/20 09:38:41;;;;;;;1.83;1.13;;;18.70;46.00;;;;;;5034283;28;20049;-69
2022/04/20 09:41:09;;;;;;;1.95;1.27;;;19.40;50.80;;;;;;5016941;28;20069;-71
2022/04/20 09:43:35;;;;;;;1.95;1.30;;;19.50;50.50;;;;;;5035689;28;20052;-71
2022/04/20 09:46:04;;;;;;;3.85;1.60;;;19.10;50.60;;;;;;5034665;28;20047;-71
2022/04/20 09:51:20;;;;;;;2.85;1.40;;;18.90;50.20;;;;;;5034006;28;20465;-70
2022/04/20 09:53:50;;;;;;;1.73;1.30;;;19.30;52.50;;;;;;5016813;28;20053;-70
2022/04/20 09:56:18;;;;;;;2.03;1.30;;;19.20;50.50;;;;;;5017123;28;20068;-72
2022/04/20 09:58:46;;;;;;;4.38;1.60;;;19.30;50.20;;;;;;5035086;28;20053;-73
2022/04/20 10:01:25;;;;;;;2.35;1.30;;;19.20;50.70;;;;;;5016069;28;20059;-72
2022/04/20 10:03:53;;;;;;;4.90;1.40;;;19.10;50.40;;;;;;5017202;28;20398;-71
2022/04/20 10:06:20;;;;;;;4.43;1.40;;;19.50;50.20;;;;;;5033985;28;20038;-71
2022/04/20 10:08:48;;;;;;;3.83;1.38;;;18.90;50.10;;;;;;5034403;28;20383;-72
2022/04/20 10:11:15;;;;;;;2.55;1.40;;;19.20;50.20;;;;;;5015858;28;20045;-71
2022/04/20 10:13:42;;;;;;;2.08;1.25;;;18.90;49.50;;;;;;5022011;28;20520;-71
2022/04/20 10:16:10;;;;;;;2.25;1.40;;;19.30;50.10;;;;;;5012756;28;20049;-71
2022/04/20 10:18:38;;;;;;;3.47;1.50;;;19.30;50.10;;;;;;5033918;28;20051;-72
2022/04/20 10:21:06;;;;;;;2.13;1.42;;;18.90;50.00;;;;;;5054233;28;20079;-71
2022/04/20 10:23:34;;;;;;;2.33;1.25;;;19.20;50.00;;;;;;5031213;28;20050;-71
2022/04/20 10:26:03;;;;;;;2.13;1.42;;;19.70;50.00;;;;;;5015649;28;20425;-71
2022/04/20 10:28:31;;;;;;;2.65;1.30;;;19.30;50.20;;;;;;5016378;28;20053;-71
2022/04/20 10:31:13;;;;;;;2.47;1.30;;;19.50;50.50;;;;;;5016237;28;20049;-69
2022/04/20 10:33:39;;;;;;;3.47;1.20;;;19.10;50.20;;;;;;5034283;28;20077;-69
2022/04/20 10:36:09;;;;;;;3.83;1.20;;;19.30;50.10;;;;;;5033777;28;20049;-69
2022/04/20 10:38:35;;;;;;;2.10;1.30;;;19.20;50.20;;;;;;5016378;28;20053;-69
2022/04/20 10:41:08;;;;;;;2.92;1.20;;;19.20;50.00;;;;;;5034023;28;20085;-70
2022/04/20 10:43:35;;;;;;;4.70;1.30;;;18.30;49.30;;;;;;5016595;28;20261;-69
2022/04/20 10:46:11;;;;;;;1.80;1.13;;;19.20;49.90;;;;;;5016615;28;20065;-68
2022/04/20 10:48:55;;;;;;;1.40;1.05;;;19.20;50.10;;;;;;5016525;28;20092;-71
2022/04/20 10:51:23;;;;;;;1.80;1.10;;;19.00;49.90;;;;;;5034016;28;20053;-69
2022/04/20 10:53:51;;;;;;;2.75;1.10;;;18.50;49.90;;;;;;5016251;28;20059;-69
2022/04/20 10:56:19;;;;;;;2.15;1.20;;;19.10;49.90;;;;;;5033729;28;20049;-69
2022/04/20 10:59:08;;;;;;;3.67;1.17;;;18.30;50.10;;;;;;5033991;28;20486;-69
2022/04/20 11:02:07;;;;;;;2.35;1.20;;;18.80;50.20;;;;;;5016097;28;20049;-69
2022/04/20 11:04:36;;;;;;;1.85;1.20;;;19.10;50.00;;;;;;5016141;28;20136;-69
2022/04/20 11:07:26;;;;;;;1.50;1.35;;;19.00;44.70;;;;;;5015557;28;20851;-70
2022/04/20 11:10:08;;;;;;;1.90;1.00;;;19.10;50.40;;;;;;5015907;28;20054;-70
2022/04/20 11:18:42;;;;;;;1.90;1.15;;;19.00;47.60;;;;;;5015924;28;20049;-69
2022/04/20 11:21:17;;;;;;;1.00;0.90;;;18.90;50.40;;;;;;5015446;28;20049;-69
2022/04/20 11:23:50;;;;;;;3.42;1.02;;;19.00;50.80;;;;;;5033201;28;20051;-69
2022/04/20 11:26:19;;;;;;;1.77;1.10;;;18.60;50.10;;;;;;5015720;28;20494;-69
2022/04/20 11:28:48;;;;;;;2.53;1.00;;;18.80;50.20;;;;;;5015427;28;20057;-69
2022/04/20 11:31:14;;;;;;;1.27;1.00;;;19.30;50.50;;;;;;5015168;28;20049;-69
2022/04/20 11:33:41;;;;;;;2.15;1.20;;;19.00;50.40;;;;;;5015512;28;20051;-69
2022/04/20 11:36:08;;;;;;;1.83;1.00;;;19.10;50.60;;;;;;5015321;28;20516;-69
2022/04/20 11:38:38;;;;;;;2.15;1.17;;;19.30;50.40;;;;;;5015243;28;20061;-69
2022/04/20 11:41:05;;;;;;;1.50;1.00;;;19.20;50.60;;;;;;5014826;28;20054;-70
2022/04/20 11:43:32;;;;;;;1.38;1.10;;;19.10;50.50;;;;;;5015313;28;20064;-69
2022/04/20 11:46:00;;;;;;;1.88;1.20;;;19.00;50.60;;;;;;5015401;28;20061;-69
2022/04/20 11:48:27;;;;;;;1.40;1.00;;;18.80;50.10;;;;;;5032453;28;20057;-71
2022/04/20 11:50:57;;;;;;;1.60;1.17;;;19.10;50.40;;;;;;5014682;28;20629;-71
2022/04/20 11:53:32;;;;;;;1.70;1.13;;;19.20;50.60;;;;;;5014744;28;20060;-70
2022/04/20 11:55:58;;;;;;;1.20;1.10;;;19.00;50.70;;;;;;5012208;28;20058;-70
2022/04/20 11:58:25;;;;;;;1.10;1.00;;;19.50;50.70;;;;;;5032227;28;20048;-71
2022/04/20 12:01:01;;;;;;;1.88;1.05;;;18.90;50.30;;;;;;5014266;28;20061;-71
2022/04/20 12:03:31;;;;;;;2.67;1.10;;;19.00;50.70;;;;;;5012457;28;20057;-71
2022/04/20 12:06:04;;;;;;;1.30;0.90;;;19.00;50.50;;;;;;5014352;28;20524;-71
2022/04/20 12:08:32;;;;;;;1.45;1.05;;;19.10;50.50;;;;;;5032482;28;20045;-70
2022/04/20 12:11:01;;;;;;;2.55;1.10;;;19.10;50.50;;;;;;5029117;28;20046;-69
2022/04/20 12:13:29;;;;;;;1.40;0.90;;;19.00;50.40;;;;;;5014385;28;20060;-71
2022/04/20 12:16:05;;;;;;;1.20;1.10;;;18.90;50.50;;;;;;5032111;28;20045;-71
2022/04/20 12:18:33;;;;;;;1.17;1.05;;;19.20;50.80;;;;;;5014287;28;20132;-71
2022/04/20 12:21:00;;;;;;;2.63;1.08;;;18.90;50.10;;;;;;5029220;28;20057;-71
2022/04/20 12:23:33;;;;;;;1.45;1.17;;;19.00;50.60;;;;;;5014518;28;20525;-71
2022/04/20 12:26:01;;;;;;;1.70;1.10;;;19.20;50.70;;;;;;5029513;28;20441;-69
2022/04/20 12:28:41;;;;;;;1.25;1.00;;;19.80;51.40;;;;;;5031933;28;20045;-69
2022/04/20 12:31:12;;;;;;;1.38;1.00;;;19.20;50.80;;;;;;5030229;28;20472;-69
2022/04/20 12:33:39;;;;;;;1.40;1.10;;;18.80;50.60;;;;;;5029335;28;20045;-69
2022/04/20 12:36:09;;;;;;;1.50;1.00;;;19.10;50.90;;;;;;5012938;28;20054;-68
2022/04/20 12:38:45;;;;;;;1.27;1.00;;;18.80;50.60;;;;;;5012357;28;20046;-69
2022/04/20 12:41:38;;;;;;;2.08;1.17;;;19.10;50.50;;;;;;5011883;28;20050;-69
2022/04/20 12:44:38;;;;;;;1.83;0.98;;;18.90;50.40;;;;;;5012444;28;20414;-69
2022/04/20 12:47:37;;;;;;;1.88;1.40;;;19.00;50.50;;;;;;5010609;28;20099;-69
2022/04/20 12:50:22;;;;;;;2.40;1.00;;;18.20;50.20;;;;;;5010366;28;20061;-68
2022/04/20 12:53:00;;;;;;;1.05;0.95;;;19.20;50.80;;;;;;5032110;28;20136;-68
2022/04/20 12:55:37;;;;;;;1.25;0.90;;;18.90;50.70;;;;;;5014231;28;20461;-69
2022/04/20 13:03:40;;;;;;;1.00;0.90;;;18.60;50.70;;;;;;5031322;28;20042;-69
2022/04/20 13:06:10;;;;;;;2.47;1.50;;;18.80;50.80;;;;;;5031493;28;20055;-69
2022/04/20 13:08:37;;;;;;;3.15;1.05;;;19.10;50.70;;;;;;5031820;28;20132;-69
2022/04/20 13:11:03;;;;;;;1.48;1.10;;;18.80;50.80;;;;;;5031280;28;20557;-69
2022/04/20 13:13:31;;;;;;;1.70;1.20;;;18.90;45.70;;;;;;5014092;28;20128;-69
2022/04/20 13:15:58;;;;;;;1.20;1.00;;;18.90;45.80;;;;;;5031228;28;20566;-68
2022/04/20 13:18:25;;;;;;;1.65;1.10;;;18.70;50.70;;;;;;5031643;28;20045;-68
2022/04/20 13:20:53;;;;;;;2.20;1.15;;;18.20;50.50;;;;;;5031380;28;20046;-69
2022/04/20 13:23:19;;;;;;;2.30;1.20;;;19.10;50.70;;;;;;5031657;28;20045;-69
2022/04/20 13:28:30;;;;;;;2.05;1.10;;;19.40;50.50;;;;;;5013774;28;20057;-69
2022/04/20 13:30:57;;;;;;;2.55;1.30;;;19.10;50.70;;;;;;5031126;28;20409;-69
2022/04/20 13:33:23;;;;;;;2.00;1.08;;;19.00;50.60;;;;;;5031290;28;20053;-69
2022/04/20 13:35:53;;;;;;;1.45;1.15;;;19.20;50.70;;;;;;5013276;28;20049;-69
2022/04/20 13:38:22;;;;;;;1.92;1.38;;;18.80;50.00;;;;;;5013632;28;20053;-69
2022/04/20 13:40:48;;;;;;;1.23;1.00;;;17.40;51.80;;;;;;5013742;28;20060;-69
2022/04/20 13:43:15;;;;;;;2.10;1.38;;;18.70;50.20;;;;;;5031042;28;20416;-68
2022/04/20 13:45:42;;;;;;;1.70;1.10;;;18.70;51.80;;;;;;5030710;28;20057;-69
2022/04/20 13:48:09;;;;;;;1.50;1.30;;;19.50;50.50;;;;;;5030396;28;20077;-69
2022/04/20 13:50:36;;;;;;;1.85;0.93;;;18.80;50.30;;;;;;5013586;28;20061;-69